sensor_id;sensor_type;location;lat;lon;timestamp;temperature;humidity
23813;DHT22;12087;45.190;5.688;2023-05-07T00:05:06;19.60;93.00
23813;DHT22;12087;45.190;5.688;2023-05-07T00:10:29;19.50;93.40
23813;DHT22;12087;45.190;5.688;2023-05-07T00:15:51;19.50;93.80
23813;DHT22;12087;45.190;5.688;2023-05-07T00:21:14;19.40;93.70
23813;DHT22;12087;45.190;5.688;2023-05-07T00:26:37;19.30;94.10
23813;DHT22;12087;45.190;5.688;2023-05-07T00:31:59;19.30;93.20
23813;DHT22;12087;45.190;5.688;2023-05-07T00:37:22;19.20;92.90
23813;DHT22;12087;45.190;5.688;2023-05-07T00:42:45;19.20;93.40
23813;DHT22;12087;45.190;5.688;2023-05-07T00:48:09;19.10;93.00
23813;DHT22;12087;45.190;5.688;2023-05-07T00:53:34;19.10;93.10
23813;DHT22;12087;45.190;5.688;2023-05-07T00:58:56;19.10;93.20
23813;DHT22;12087;45.190;5.688;2023-05-07T01:04:18;19.00;93.30
23813;DHT22;12087;45.190;5.688;2023-05-07T01:09:42;18.90;93.40
23813;DHT22;12087;45.190;5.688;2023-05-07T01:15:06;18.90;93.50
23813;DHT22;12087;45.190;5.688;2023-05-07T01:20:30;18.90;94.00
23813;DHT22;12087;45.190;5.688;2023-05-07T01:25:54;18.80;94.40
23813;DHT22;12087;45.190;5.688;2023-05-07T01:31:17;18.70;94.40
23813;DHT22;12087;45.190;5.688;2023-05-07T01:36:40;18.70;94.70
23813;DHT22;12087;45.190;5.688;2023-05-07T01:42:07;18.70;95.40
23813;DHT22;12087;45.190;5.688;2023-05-07T01:47:30;18.70;96.40
23813;DHT22;12087;45.190;5.688;2023-05-07T01:52:52;18.60;97.30
23813;DHT22;12087;45.190;5.688;2023-05-07T01:58:17;18.50;98.30
23813;DHT22;12087;45.190;5.688;2023-05-07T02:03:39;18.50;99.10
23813;DHT22;12087;45.190;5.688;2023-05-07T02:09:02;18.50;99.90
23813;DHT22;12087;45.190;5.688;2023-05-07T02:14:25;18.40;99.90
23813;DHT22;12087;45.190;5.688;2023-05-07T02:19:47;18.40;99.90
23813;DHT22;12087;45.190;5.688;2023-05-07T02:25:10;18.20;99.90
23813;DHT22;12087;45.190;5.688;2023-05-07T02:30:33;18.10;99.90
23813;DHT22;12087;45.190;5.688;2023-05-07T02:35:55;18.00;99.90
23813;DHT22;12087;45.190;5.688;2023-05-07T02:41:18;17.90;99.90
23813;DHT22;12087;45.190;5.688;2023-05-07T02:46:42;17.80;99.90
23813;DHT22;12087;45.190;5.688;2023-05-07T02:52:04;17.70;99.90
23813;DHT22;12087;45.190;5.688;2023-05-07T02:57:26;17.70;99.90
23813;DHT22;12087;45.190;5.688;2023-05-07T03:02:50;17.70;99.90
23813;DHT22;12087;45.190;5.688;2023-05-07T03:08:12;17.70;99.90
23813;DHT22;12087;45.190;5.688;2023-05-07T03:13:34;17.60;99.90
23813;DHT22;12087;45.190;5.688;2023-05-07T03:18:58;17.60;99.90
23813;DHT22;12087;45.190;5.688;2023-05-07T03:24:20;17.50;99.90
23813;DHT22;12087;45.190;5.688;2023-05-07T03:29:42;17.50;99.90
23813;DHT22;12087;45.190;5.688;2023-05-07T03:35:07;17.40;99.90
23813;DHT22;12087;45.190;5.688;2023-05-07T03:40:29;17.30;99.90
23813;DHT22;12087;45.190;5.688;2023-05-07T03:45:51;17.40;99.90
23813;DHT22;12087;45.190;5.688;2023-05-07T03:51:15;17.40;99.90
23813;DHT22;12087;45.190;5.688;2023-05-07T03:56:37;17.30;99.90
23813;DHT22;12087;45.190;5.688;2023-05-07T04:01:59;17.30;99.90
23813;DHT22;12087;45.190;5.688;2023-05-07T04:07:23;17.20;99.90
23813;DHT22;12087;45.190;5.688;2023-05-07T04:12:45;17.20;99.90
23813;DHT22;12087;45.190;5.688;2023-05-07T04:18:08;17.10;99.90
23813;DHT22;12087;45.190;5.688;2023-05-07T04:23:32;16.90;99.90
23813;DHT22;12087;45.190;5.688;2023-05-07T04:28:54;16.80;99.90
23813;DHT22;12087;45.190;5.688;2023-05-07T04:34:17;16.70;99.90
23813;DHT22;12087;45.190;5.688;2023-05-07T04:39:41;16.60;99.90
23813;DHT22;12087;45.190;5.688;2023-05-07T04:45:03;16.60;99.90
23813;DHT22;12087;45.190;5.688;2023-05-07T04:50:26;16.60;99.90
23813;DHT22;12087;45.190;5.688;2023-05-07T04:55:55;16.70;99.90
23813;DHT22;12087;45.190;5.688;2023-05-07T05:01:17;16.80;99.90
23813;DHT22;12087;45.190;5.688;2023-05-07T05:06:39;16.80;99.90
23813;DHT22;12087;45.190;5.688;2023-05-07T05:12:03;16.80;99.90
23813;DHT22;12087;45.190;5.688;2023-05-07T05:17:27;16.80;99.90
23813;DHT22;12087;45.190;5.688;2023-05-07T05:22:50;16.70;99.90
23813;DHT22;12087;45.190;5.688;2023-05-07T05:28:13;16.70;99.90
23813;DHT22;12087;45.190;5.688;2023-05-07T05:33:35;16.60;99.90
23813;DHT22;12087;45.190;5.688;2023-05-07T05:38:58;16.50;99.90
23813;DHT22;12087;45.190;5.688;2023-05-07T05:44:21;16.40;99.90
23813;DHT22;12087;45.190;5.688;2023-05-07T05:49:43;16.40;99.90
23813;DHT22;12087;45.190;5.688;2023-05-07T05:55:06;16.40;99.90
23813;DHT22;12087;45.190;5.688;2023-05-07T06:00:30;16.40;99.90
23813;DHT22;12087;45.190;5.688;2023-05-07T06:05:52;16.50;99.90
23813;DHT22;12087;45.190;5.688;2023-05-07T06:11:15;16.50;99.90
23813;DHT22;12087;45.190;5.688;2023-05-07T06:16:38;16.50;99.90
23813;DHT22;12087;45.190;5.688;2023-05-07T06:22:00;16.50;99.90
23813;DHT22;12087;45.190;5.688;2023-05-07T06:27:23;16.60;99.90
23813;DHT22;12087;45.190;5.688;2023-05-07T06:32:51;16.70;99.90
23813;DHT22;12087;45.190;5.688;2023-05-07T06:38:13;16.80;99.90
23813;DHT22;12087;45.190;5.688;2023-05-07T06:43:36;16.90;99.90
23813;DHT22;12087;45.190;5.688;2023-05-07T06:48:59;17.10;99.90
23813;DHT22;12087;45.190;5.688;2023-05-07T06:54:22;17.20;99.90
23813;DHT22;12087;45.190;5.688;2023-05-07T06:59:44;17.40;99.90
23813;DHT22;12087;45.190;5.688;2023-05-07T07:05:09;17.50;99.90
23813;DHT22;12087;45.190;5.688;2023-05-07T07:10:31;17.60;99.90
23813;DHT22;12087;45.190;5.688;2023-05-07T07:15:53;17.80;99.90
23813;DHT22;12087;45.190;5.688;2023-05-07T07:21:18;17.70;99.90
23813;DHT22;12087;45.190;5.688;2023-05-07T07:26:40;17.70;99.90
23813;DHT22;12087;45.190;5.688;2023-05-07T07:32:03;17.80;99.90
23813;DHT22;12087;45.190;5.688;2023-05-07T07:37:27;18.00;99.90
23813;DHT22;12087;45.190;5.688;2023-05-07T07:42:50;18.20;99.90
23813;DHT22;12087;45.190;5.688;2023-05-07T07:48:12;18.30;99.90
23813;DHT22;12087;45.190;5.688;2023-05-07T07:53:36;18.40;99.90
23813;DHT22;12087;45.190;5.688;2023-05-07T07:58:58;18.50;99.90
23813;DHT22;12087;45.190;5.688;2023-05-07T08:04:20;18.70;99.90
23813;DHT22;12087;45.190;5.688;2023-05-07T08:09:44;18.70;99.90
23813;DHT22;12087;45.190;5.688;2023-05-07T08:15:07;18.70;99.90
23813;DHT22;12087;45.190;5.688;2023-05-07T08:20:29;18.70;99.90
23813;DHT22;12087;45.190;5.688;2023-05-07T08:25:53;18.70;99.90
23813;DHT22;12087;45.190;5.688;2023-05-07T08:31:15;18.70;99.90
23813;DHT22;12087;45.190;5.688;2023-05-07T08:36:37;18.80;99.90
23813;DHT22;12087;45.190;5.688;2023-05-07T08:42:05;18.90;99.90
23813;DHT22;12087;45.190;5.688;2023-05-07T08:47:34;18.90;99.90
23813;DHT22;12087;45.190;5.688;2023-05-07T08:52:57;19.00;99.90
23813;DHT22;12087;45.190;5.688;2023-05-07T08:58:22;19.00;99.90
23813;DHT22;12087;45.190;5.688;2023-05-07T09:03:45;18.90;99.90
23813;DHT22;12087;45.190;5.688;2023-05-07T09:09:08;18.80;99.90
23813;DHT22;12087;45.190;5.688;2023-05-07T09:14:31;18.70;99.90
23813;DHT22;12087;45.190;5.688;2023-05-07T09:19:54;18.60;99.90
23813;DHT22;12087;45.190;5.688;2023-05-07T09:25:27;18.60;99.90
23813;DHT22;12087;45.190;5.688;2023-05-07T09:30:52;18.60;99.90
23813;DHT22;12087;45.190;5.688;2023-05-07T09:36:14;18.50;99.90
23813;DHT22;12087;45.190;5.688;2023-05-07T09:41:44;18.50;99.90
23813;DHT22;12087;45.190;5.688;2023-05-07T09:47:08;18.40;99.90
23813;DHT22;12087;45.190;5.688;2023-05-07T09:52:30;18.40;99.90
23813;DHT22;12087;45.190;5.688;2023-05-07T09:57:54;18.30;99.90
23813;DHT22;12087;45.190;5.688;2023-05-07T10:03:19;18.20;99.90
23813;DHT22;12087;45.190;5.688;2023-05-07T10:08:43;18.00;99.90
23813;DHT22;12087;45.190;5.688;2023-05-07T10:14:06;17.90;99.90
23813;DHT22;12087;45.190;5.688;2023-05-07T10:19:29;17.90;99.90
23813;DHT22;12087;45.190;5.688;2023-05-07T10:24:54;17.80;99.90
23813;DHT22;12087;45.190;5.688;2023-05-07T10:30:34;17.70;99.90
23813;DHT22;12087;45.190;5.688;2023-05-07T10:36:02;17.80;99.90
23813;DHT22;12087;45.190;5.688;2023-05-07T10:41:25;17.60;99.90
23813;DHT22;12087;45.190;5.688;2023-05-07T10:47:06;17.60;99.90
23813;DHT22;12087;45.190;5.688;2023-05-07T10:52:32;17.60;99.90
23813;DHT22;12087;45.190;5.688;2023-05-07T10:57:54;17.70;99.90
23813;DHT22;12087;45.190;5.688;2023-05-07T11:03:16;17.60;99.90
23813;DHT22;12087;45.190;5.688;2023-05-07T11:08:56;17.70;99.90
23813;DHT22;12087;45.190;5.688;2023-05-07T11:14:42;17.70;99.90
23813;DHT22;12087;45.190;5.688;2023-05-07T11:20:06;17.80;99.90
23813;DHT22;12087;45.190;5.688;2023-05-07T11:25:30;17.80;99.90
23813;DHT22;12087;45.190;5.688;2023-05-07T11:30:52;17.90;99.90
23813;DHT22;12087;45.190;5.688;2023-05-07T11:36:15;17.90;99.90
23813;DHT22;12087;45.190;5.688;2023-05-07T11:41:39;17.80;99.90
23813;DHT22;12087;45.190;5.688;2023-05-07T11:47:03;17.70;99.90
23813;DHT22;12087;45.190;5.688;2023-05-07T11:52:25;17.70;99.90
23813;DHT22;12087;45.190;5.688;2023-05-07T11:57:49;17.60;99.90
23813;DHT22;12087;45.190;5.688;2023-05-07T12:03:11;17.60;99.90
23813;DHT22;12087;45.190;5.688;2023-05-07T12:08:36;17.60;99.90
23813;DHT22;12087;45.190;5.688;2023-05-07T12:14:00;17.60;99.90
23813;DHT22;12087;45.190;5.688;2023-05-07T12:19:23;17.60;99.90
23813;DHT22;12087;45.190;5.688;2023-05-07T12:24:46;17.70;99.90
23813;DHT22;12087;45.190;5.688;2023-05-07T12:30:12;17.70;99.90
23813;DHT22;12087;45.190;5.688;2023-05-07T12:35:37;17.70;99.90
23813;DHT22;12087;45.190;5.688;2023-05-07T12:41:00;17.70;99.90
23813;DHT22;12087;45.190;5.688;2023-05-07T12:46:23;17.70;99.90
23813;DHT22;12087;45.190;5.688;2023-05-07T12:51:47;17.70;99.90
23813;DHT22;12087;45.190;5.688;2023-05-07T12:57:10;17.80;99.90
23813;DHT22;12087;45.190;5.688;2023-05-07T13:02:37;17.70;99.90
23813;DHT22;12087;45.190;5.688;2023-05-07T13:07:59;17.70;99.90
23813;DHT22;12087;45.190;5.688;2023-05-07T13:13:21;17.70;99.90
23813;DHT22;12087;45.190;5.688;2023-05-07T13:18:45;17.70;99.90
23813;DHT22;12087;45.190;5.688;2023-05-07T13:24:08;17.70;99.90
23813;DHT22;12087;45.190;5.688;2023-05-07T13:29:30;17.80;99.90
23813;DHT22;12087;45.190;5.688;2023-05-07T13:34:54;17.80;99.90
23813;DHT22;12087;45.190;5.688;2023-05-07T13:40:16;17.80;99.90
23813;DHT22;12087;45.190;5.688;2023-05-07T13:45:38;17.90;99.90
23813;DHT22;12087;45.190;5.688;2023-05-07T13:51:02;17.90;99.90
23813;DHT22;12087;45.190;5.688;2023-05-07T13:56:24;18.00;99.90
23813;DHT22;12087;45.190;5.688;2023-05-07T14:01:46;17.90;99.90
23813;DHT22;12087;45.190;5.688;2023-05-07T14:07:10;17.80;99.90
23813;DHT22;12087;45.190;5.688;2023-05-07T14:12:32;17.80;99.90
23813;DHT22;12087;45.190;5.688;2023-05-07T14:17:56;17.70;99.90
23813;DHT22;12087;45.190;5.688;2023-05-07T14:23:21;17.70;99.90
23813;DHT22;12087;45.190;5.688;2023-05-07T14:28:47;17.70;99.90
23813;DHT22;12087;45.190;5.688;2023-05-07T14:34:09;17.60;99.90
23813;DHT22;12087;45.190;5.688;2023-05-07T14:39:32;17.60;99.90
23813;DHT22;12087;45.190;5.688;2023-05-07T14:44:55;17.70;99.90
23813;DHT22;12087;45.190;5.688;2023-05-07T14:50:17;17.70;99.90
23813;DHT22;12087;45.190;5.688;2023-05-07T14:55:40;17.70;99.90
23813;DHT22;12087;45.190;5.688;2023-05-07T15:01:03;17.80;99.90
23813;DHT22;12087;45.190;5.688;2023-05-07T15:06:26;17.80;99.90
23813;DHT22;12087;45.190;5.688;2023-05-07T15:11:50;17.70;99.90
23813;DHT22;12087;45.190;5.688;2023-05-07T15:17:12;17.70;99.90
23813;DHT22;12087;45.190;5.688;2023-05-07T15:22:36;17.70;99.90
23813;DHT22;12087;45.190;5.688;2023-05-07T15:28:01;17.80;99.90
23813;DHT22;12087;45.190;5.688;2023-05-07T15:33:23;17.70;99.90
23813;DHT22;12087;45.190;5.688;2023-05-07T15:38:46;17.70;99.90
23813;DHT22;12087;45.190;5.688;2023-05-07T15:44:09;17.70;99.90
23813;DHT22;12087;45.190;5.688;2023-05-07T15:49:32;17.70;99.90
23813;DHT22;12087;45.190;5.688;2023-05-07T15:54:54;17.80;99.90
23813;DHT22;12087;45.190;5.688;2023-05-07T16:00:19;17.70;99.90
23813;DHT22;12087;45.190;5.688;2023-05-07T16:05:41;17.80;99.90
23813;DHT22;12087;45.190;5.688;2023-05-07T16:11:06;17.80;99.90
23813;DHT22;12087;45.190;5.688;2023-05-07T16:16:32;17.80;99.90
23813;DHT22;12087;45.190;5.688;2023-05-07T16:21:55;17.80;99.90
23813;DHT22;12087;45.190;5.688;2023-05-07T16:27:18;17.90;99.90
23813;DHT22;12087;45.190;5.688;2023-05-07T16:32:42;18.00;99.90
23813;DHT22;12087;45.190;5.688;2023-05-07T16:38:05;18.00;99.90
23813;DHT22;12087;45.190;5.688;2023-05-07T16:43:30;18.10;99.90
23813;DHT22;12087;45.190;5.688;2023-05-07T16:48:54;18.10;99.90
23813;DHT22;12087;45.190;5.688;2023-05-07T16:54:17;18.10;99.90
23813;DHT22;12087;45.190;5.688;2023-05-07T16:59:39;18.10;99.90
23813;DHT22;12087;45.190;5.688;2023-05-07T17:05:04;18.10;99.90
23813;DHT22;12087;45.190;5.688;2023-05-07T17:10:27;18.00;99.90
23813;DHT22;12087;45.190;5.688;2023-05-07T17:15:49;18.00;99.90
23813;DHT22;12087;45.190;5.688;2023-05-07T17:21:12;17.90;99.90
23813;DHT22;12087;45.190;5.688;2023-05-07T17:26:35;17.90;99.90
23813;DHT22;12087;45.190;5.688;2023-05-07T17:31:59;17.90;99.90
23813;DHT22;12087;45.190;5.688;2023-05-07T17:37:23;17.90;99.90
23813;DHT22;12087;45.190;5.688;2023-05-07T17:42:45;17.80;99.90
23813;DHT22;12087;45.190;5.688;2023-05-07T17:48:07;17.80;99.90
23813;DHT22;12087;45.190;5.688;2023-05-07T17:53:31;17.80;99.90
23813;DHT22;12087;45.190;5.688;2023-05-07T17:58:53;17.80;99.90
23813;DHT22;12087;45.190;5.688;2023-05-07T18:04:16;17.80;99.90
23813;DHT22;12087;45.190;5.688;2023-05-07T18:09:41;17.70;99.90
23813;DHT22;12087;45.190;5.688;2023-05-07T18:15:04;17.70;99.90
23813;DHT22;12087;45.190;5.688;2023-05-07T18:20:26;17.70;99.90
23813;DHT22;12087;45.190;5.688;2023-05-07T18:25:50;17.70;99.90
23813;DHT22;12087;45.190;5.688;2023-05-07T18:31:15;17.70;99.90
23813;DHT22;12087;45.190;5.688;2023-05-07T18:36:40;17.60;99.90
23813;DHT22;12087;45.190;5.688;2023-05-07T18:42:04;17.60;99.90
23813;DHT22;12087;45.190;5.688;2023-05-07T18:47:28;17.50;99.90
23813;DHT22;12087;45.190;5.688;2023-05-07T18:52:53;17.50;99.90
23813;DHT22;12087;45.190;5.688;2023-05-07T18:58:18;17.40;99.90
23813;DHT22;12087;45.190;5.688;2023-05-07T19:03:41;17.40;99.90
23813;DHT22;12087;45.190;5.688;2023-05-07T19:09:03;17.40;99.90
23813;DHT22;12087;45.190;5.688;2023-05-07T19:14:27;17.40;99.90
23813;DHT22;12087;45.190;5.688;2023-05-07T19:19:49;17.40;99.90
23813;DHT22;12087;45.190;5.688;2023-05-07T19:25:12;17.30;99.90
23813;DHT22;12087;45.190;5.688;2023-05-07T19:30:37;17.30;99.90
23813;DHT22;12087;45.190;5.688;2023-05-07T19:35:59;17.30;99.90
23813;DHT22;12087;45.190;5.688;2023-05-07T19:41:22;17.20;99.90
23813;DHT22;12087;45.190;5.688;2023-05-07T19:46:46;17.20;99.90
23813;DHT22;12087;45.190;5.688;2023-05-07T19:52:08;17.10;99.90
23813;DHT22;12087;45.190;5.688;2023-05-07T19:57:30;17.00;99.90
23813;DHT22;12087;45.190;5.688;2023-05-07T20:02:54;16.90;99.90
23813;DHT22;12087;45.190;5.688;2023-05-07T20:08:16;16.70;99.90
23813;DHT22;12087;45.190;5.688;2023-05-07T20:13:38;16.60;99.90
23813;DHT22;12087;45.190;5.688;2023-05-07T20:19:02;16.50;99.90
23813;DHT22;12087;45.190;5.688;2023-05-07T20:24:24;16.30;99.90
23813;DHT22;12087;45.190;5.688;2023-05-07T20:29:46;16.30;99.90
23813;DHT22;12087;45.190;5.688;2023-05-07T20:35:12;16.20;99.90
23813;DHT22;12087;45.190;5.688;2023-05-07T20:40:35;16.20;99.90
23813;DHT22;12087;45.190;5.688;2023-05-07T20:45:58;16.20;99.90
23813;DHT22;12087;45.190;5.688;2023-05-07T20:51:22;16.20;99.90
23813;DHT22;12087;45.190;5.688;2023-05-07T20:56:44;16.30;99.90
23813;DHT22;12087;45.190;5.688;2023-05-07T21:02:08;16.30;99.90
23813;DHT22;12087;45.190;5.688;2023-05-07T21:07:31;16.20;99.90
23813;DHT22;12087;45.190;5.688;2023-05-07T21:12:54;16.10;99.90
23813;DHT22;12087;45.190;5.688;2023-05-07T21:18:17;16.10;99.90
23813;DHT22;12087;45.190;5.688;2023-05-07T21:23:41;16.10;99.90
23813;DHT22;12087;45.190;5.688;2023-05-07T21:29:03;16.10;99.90
23813;DHT22;12087;45.190;5.688;2023-05-07T21:34:26;16.20;99.90
23813;DHT22;12087;45.190;5.688;2023-05-07T21:39:49;16.10;99.90
23813;DHT22;12087;45.190;5.688;2023-05-07T21:45:12;16.00;99.90
23813;DHT22;12087;45.190;5.688;2023-05-07T21:50:34;16.00;99.90
23813;DHT22;12087;45.190;5.688;2023-05-07T21:55:58;16.00;99.90
23813;DHT22;12087;45.190;5.688;2023-05-07T22:01:21;16.00;99.90
23813;DHT22;12087;45.190;5.688;2023-05-07T22:06:44;15.90;99.90
23813;DHT22;12087;45.190;5.688;2023-05-07T22:12:07;15.90;99.90
23813;DHT22;12087;45.190;5.688;2023-05-07T22:17:30;15.90;99.90
23813;DHT22;12087;45.190;5.688;2023-05-07T22:22:53;15.90;99.90
23813;DHT22;12087;45.190;5.688;2023-05-07T22:28:17;15.90;99.90
23813;DHT22;12087;45.190;5.688;2023-05-07T22:33:39;15.90;99.90
23813;DHT22;12087;45.190;5.688;2023-05-07T22:39:02;15.90;99.90
23813;DHT22;12087;45.190;5.688;2023-05-07T22:44:28;15.90;99.90
23813;DHT22;12087;45.190;5.688;2023-05-07T22:49:50;15.90;99.90
23813;DHT22;12087;45.190;5.688;2023-05-07T22:55:12;16.00;99.90
23813;DHT22;12087;45.190;5.688;2023-05-07T23:00:36;16.00;99.90
23813;DHT22;12087;45.190;5.688;2023-05-07T23:05:58;15.90;99.90
23813;DHT22;12087;45.190;5.688;2023-05-07T23:11:21;15.90;99.90
23813;DHT22;12087;45.190;5.688;2023-05-07T23:16:44;15.90;99.90
23813;DHT22;12087;45.190;5.688;2023-05-07T23:22:07;15.90;99.90
23813;DHT22;12087;45.190;5.688;2023-05-07T23:27:30;15.90;99.90
23813;DHT22;12087;45.190;5.688;2023-05-07T23:32:54;15.80;99.90
23813;DHT22;12087;45.190;5.688;2023-05-07T23:38:16;15.80;99.90
23813;DHT22;12087;45.190;5.688;2023-05-07T23:43:38;15.80;99.90
23813;DHT22;12087;45.190;5.688;2023-05-07T23:49:02;15.80;99.90
23813;DHT22;12087;45.190;5.688;2023-05-07T23:54:24;15.70;99.90
23813;DHT22;12087;45.190;5.688;2023-05-07T23:59:46;15.70;99.90
